sensor_id;sensor_type;location;lat;lon;timestamp;P1;durP1;ratioP1;P2;durP2;ratioP2
24685;SDS011;12804;51.176;4.452;2024-02-28T00:01:03;9.52;;;6.28;;
24685;SDS011;12804;51.176;4.452;2024-02-28T00:03:29;9.80;;;6.35;;
24685;SDS011;12804;51.176;4.452;2024-02-28T00:05:57;10.13;;;5.53;;
24685;SDS011;12804;51.176;4.452;2024-02-28T00:08:23;10.23;;;6.25;;
24685;SDS011;12804;51.176;4.452;2024-02-28T00:10:49;9.77;;;6.65;;
24685;SDS011;12804;51.176;4.452;2024-02-28T00:13:15;10.60;;;6.50;;
24685;SDS011;12804;51.176;4.452;2024-02-28T00:15:41;10.30;;;6.18;;
24685;SDS011;12804;51.176;4.452;2024-02-28T00:18:10;11.02;;;6.85;;
24685;SDS011;12804;51.176;4.452;2024-02-28T00:20:36;11.40;;;6.75;;
24685;SDS011;12804;51.176;4.452;2024-02-28T00:23:02;10.43;;;6.72;;
24685;SDS011;12804;51.176;4.452;2024-02-28T00:25:28;11.40;;;7.43;;
24685;SDS011;12804;51.176;4.452;2024-02-28T00:27:54;8.50;;;6.28;;
24685;SDS011;12804;51.176;4.452;2024-02-28T00:30:20;14.05;;;7.05;;
24685;SDS011;12804;51.176;4.452;2024-02-28T00:32:45;10.77;;;6.85;;
24685;SDS011;12804;51.176;4.452;2024-02-28T00:35:11;13.10;;;7.18;;
24685;SDS011;12804;51.176;4.452;2024-02-28T00:37:37;9.18;;;6.90;;
24685;SDS011;12804;51.176;4.452;2024-02-28T00:40:03;9.73;;;7.28;;
24685;SDS011;12804;51.176;4.452;2024-02-28T00:42:29;9.38;;;6.45;;
24685;SDS011;12804;51.176;4.452;2024-02-28T00:44:56;11.38;;;7.53;;
24685;SDS011;12804;51.176;4.452;2024-02-28T00:47:22;10.60;;;6.82;;
24685;SDS011;12804;51.176;4.452;2024-02-28T00:49:48;12.02;;;7.28;;
24685;SDS011;12804;51.176;4.452;2024-02-28T00:52:14;11.10;;;7.50;;
24685;SDS011;12804;51.176;4.452;2024-02-28T00:54:40;9.95;;;7.00;;
24685;SDS011;12804;51.176;4.452;2024-02-28T00:57:09;13.07;;;8.23;;
24685;SDS011;12804;51.176;4.452;2024-02-28T00:59:35;9.65;;;7.70;;
24685;SDS011;12804;51.176;4.452;2024-02-28T01:02:00;12.52;;;7.60;;
24685;SDS011;12804;51.176;4.452;2024-02-28T01:04:28;10.93;;;8.27;;
24685;SDS011;12804;51.176;4.452;2024-02-28T01:06:54;12.95;;;7.85;;
24685;SDS011;12804;51.176;4.452;2024-02-28T01:09:21;11.30;;;8.38;;
24685;SDS011;12804;51.176;4.452;2024-02-28T01:11:47;15.52;;;8.30;;
24685;SDS011;12804;51.176;4.452;2024-02-28T01:14:13;14.98;;;8.77;;
24685;SDS011;12804;51.176;4.452;2024-02-28T01:16:39;13.38;;;8.85;;
24685;SDS011;12804;51.176;4.452;2024-02-28T01:19:04;13.35;;;8.90;;
24685;SDS011;12804;51.176;4.452;2024-02-28T01:21:30;15.02;;;9.52;;
24685;SDS011;12804;51.176;4.452;2024-02-28T01:23:56;13.85;;;8.85;;
24685;SDS011;12804;51.176;4.452;2024-02-28T01:26:22;13.07;;;9.20;;
24685;SDS011;12804;51.176;4.452;2024-02-28T01:28:48;15.13;;;8.93;;
24685;SDS011;12804;51.176;4.452;2024-02-28T01:31:15;16.25;;;8.98;;
24685;SDS011;12804;51.176;4.452;2024-02-28T01:33:41;14.13;;;9.30;;
24685;SDS011;12804;51.176;4.452;2024-02-28T01:36:06;12.82;;;8.77;;
24685;SDS011;12804;51.176;4.452;2024-02-28T01:38:32;16.15;;;8.98;;
24685;SDS011;12804;51.176;4.452;2024-02-28T01:40:58;14.65;;;8.75;;
24685;SDS011;12804;51.176;4.452;2024-02-28T01:43:24;17.00;;;9.95;;
24685;SDS011;12804;51.176;4.452;2024-02-28T01:45:50;18.20;;;10.07;;
24685;SDS011;12804;51.176;4.452;2024-02-28T01:48:16;13.23;;;8.98;;
24685;SDS011;12804;51.176;4.452;2024-02-28T01:50:41;13.23;;;9.38;;
24685;SDS011;12804;51.176;4.452;2024-02-28T01:53:08;16.48;;;9.63;;
24685;SDS011;12804;51.176;4.452;2024-02-28T01:55:36;16.17;;;10.43;;
24685;SDS011;12804;51.176;4.452;2024-02-28T01:58:03;18.50;;;10.60;;
24685;SDS011;12804;51.176;4.452;2024-02-28T02:00:33;15.13;;;10.43;;
24685;SDS011;12804;51.176;4.452;2024-02-28T02:03:02;17.15;;;10.45;;
24685;SDS011;12804;51.176;4.452;2024-02-28T02:05:28;17.58;;;10.35;;
24685;SDS011;12804;51.176;4.452;2024-02-28T02:07:55;18.67;;;10.35;;
24685;SDS011;12804;51.176;4.452;2024-02-28T02:10:23;17.10;;;10.77;;
24685;SDS011;12804;51.176;4.452;2024-02-28T02:12:49;14.90;;;10.48;;
24685;SDS011;12804;51.176;4.452;2024-02-28T02:15:15;18.23;;;10.05;;
24685;SDS011;12804;51.176;4.452;2024-02-28T02:17:40;18.83;;;11.00;;
24685;SDS011;12804;51.176;4.452;2024-02-28T02:20:06;18.42;;;10.70;;
24685;SDS011;12804;51.176;4.452;2024-02-28T02:22:37;16.05;;;10.45;;
24685;SDS011;12804;51.176;4.452;2024-02-28T02:25:06;21.67;;;10.75;;
24685;SDS011;12804;51.176;4.452;2024-02-28T02:27:32;20.77;;;11.85;;
24685;SDS011;12804;51.176;4.452;2024-02-28T02:29:58;22.08;;;11.65;;
24685;SDS011;12804;51.176;4.452;2024-02-28T02:32:23;18.27;;;11.57;;
24685;SDS011;12804;51.176;4.452;2024-02-28T02:34:49;19.15;;;11.90;;
24685;SDS011;12804;51.176;4.452;2024-02-28T02:37:16;19.80;;;12.23;;
24685;SDS011;12804;51.176;4.452;2024-02-28T02:39:41;23.63;;;12.77;;
24685;SDS011;12804;51.176;4.452;2024-02-28T02:42:08;18.95;;;12.43;;
24685;SDS011;12804;51.176;4.452;2024-02-28T02:44:34;23.13;;;12.18;;
24685;SDS011;12804;51.176;4.452;2024-02-28T02:47:00;20.20;;;11.25;;
24685;SDS011;12804;51.176;4.452;2024-02-28T02:49:26;17.33;;;11.60;;
24685;SDS011;12804;51.176;4.452;2024-02-28T02:51:51;19.23;;;11.93;;
24685;SDS011;12804;51.176;4.452;2024-02-28T02:54:17;15.38;;;10.95;;
24685;SDS011;12804;51.176;4.452;2024-02-28T02:56:43;21.20;;;11.68;;
24685;SDS011;12804;51.176;4.452;2024-02-28T02:59:12;20.00;;;12.13;;
24685;SDS011;12804;51.176;4.452;2024-02-28T03:01:38;20.88;;;12.02;;
24685;SDS011;12804;51.176;4.452;2024-02-28T03:04:04;21.02;;;11.73;;
24685;SDS011;12804;51.176;4.452;2024-02-28T03:06:30;19.33;;;11.70;;
24685;SDS011;12804;51.176;4.452;2024-02-28T03:08:57;24.42;;;13.05;;
24685;SDS011;12804;51.176;4.452;2024-02-28T03:11:23;19.35;;;11.30;;
24685;SDS011;12804;51.176;4.452;2024-02-28T03:13:49;16.95;;;11.93;;
24685;SDS011;12804;51.176;4.452;2024-02-28T03:16:15;22.00;;;11.80;;
24685;SDS011;12804;51.176;4.452;2024-02-28T03:18:41;18.33;;;11.55;;
24685;SDS011;12804;51.176;4.452;2024-02-28T03:21:07;21.63;;;12.07;;
24685;SDS011;12804;51.176;4.452;2024-02-28T03:23:32;18.90;;;11.32;;
24685;SDS011;12804;51.176;4.452;2024-02-28T03:26:01;19.10;;;11.57;;
24685;SDS011;12804;51.176;4.452;2024-02-28T03:28:28;23.27;;;12.15;;
24685;SDS011;12804;51.176;4.452;2024-02-28T03:30:54;21.52;;;11.68;;
24685;SDS011;12804;51.176;4.452;2024-02-28T03:33:20;17.75;;;11.23;;
24685;SDS011;12804;51.176;4.452;2024-02-28T03:35:47;17.70;;;11.73;;
24685;SDS011;12804;51.176;4.452;2024-02-28T03:38:12;17.10;;;11.02;;
24685;SDS011;12804;51.176;4.452;2024-02-28T03:40:38;16.75;;;10.82;;
24685;SDS011;12804;51.176;4.452;2024-02-28T03:43:04;18.00;;;11.13;;
24685;SDS011;12804;51.176;4.452;2024-02-28T03:45:30;16.67;;;10.43;;
24685;SDS011;12804;51.176;4.452;2024-02-28T03:47:55;19.73;;;10.98;;
24685;SDS011;12804;51.176;4.452;2024-02-28T03:50:21;19.17;;;11.15;;
24685;SDS011;12804;51.176;4.452;2024-02-28T03:52:47;15.55;;;10.25;;
24685;SDS011;12804;51.176;4.452;2024-02-28T03:55:13;18.15;;;11.02;;
24685;SDS011;12804;51.176;4.452;2024-02-28T03:57:40;16.85;;;10.38;;
24685;SDS011;12804;51.176;4.452;2024-02-28T04:00:06;19.25;;;10.85;;
24685;SDS011;12804;51.176;4.452;2024-02-28T04:02:39;16.73;;;10.70;;
24685;SDS011;12804;51.176;4.452;2024-02-28T04:05:05;16.42;;;10.60;;
24685;SDS011;12804;51.176;4.452;2024-02-28T04:07:31;18.30;;;10.60;;
24685;SDS011;12804;51.176;4.452;2024-02-28T04:09:57;16.95;;;11.13;;
24685;SDS011;12804;51.176;4.452;2024-02-28T04:12:23;15.13;;;10.38;;
24685;SDS011;12804;51.176;4.452;2024-02-28T04:14:48;20.35;;;10.82;;
24685;SDS011;12804;51.176;4.452;2024-02-28T04:17:14;18.58;;;11.05;;
24685;SDS011;12804;51.176;4.452;2024-02-28T04:19:40;16.83;;;10.60;;
24685;SDS011;12804;51.176;4.452;2024-02-28T04:22:06;17.42;;;10.70;;
24685;SDS011;12804;51.176;4.452;2024-02-28T04:24:32;18.25;;;11.00;;
24685;SDS011;12804;51.176;4.452;2024-02-28T04:26:58;19.20;;;10.70;;
24685;SDS011;12804;51.176;4.452;2024-02-28T04:29:25;17.20;;;11.05;;
24685;SDS011;12804;51.176;4.452;2024-02-28T04:31:50;16.65;;;10.48;;
24685;SDS011;12804;51.176;4.452;2024-02-28T04:34:16;18.98;;;10.32;;
24685;SDS011;12804;51.176;4.452;2024-02-28T04:36:42;16.17;;;10.18;;
24685;SDS011;12804;51.176;4.452;2024-02-28T04:39:08;17.60;;;10.77;;
24685;SDS011;12804;51.176;4.452;2024-02-28T04:41:34;17.40;;;10.30;;
24685;SDS011;12804;51.176;4.452;2024-02-28T04:43:59;21.13;;;10.32;;
24685;SDS011;12804;51.176;4.452;2024-02-28T04:46:25;21.95;;;10.15;;
24685;SDS011;12804;51.176;4.452;2024-02-28T04:48:51;18.23;;;10.43;;
24685;SDS011;12804;51.176;4.452;2024-02-28T04:51:17;16.88;;;10.75;;
24685;SDS011;12804;51.176;4.452;2024-02-28T04:53:43;15.88;;;10.43;;
24685;SDS011;12804;51.176;4.452;2024-02-28T04:56:09;15.30;;;9.80;;
24685;SDS011;12804;51.176;4.452;2024-02-28T04:58:35;18.38;;;10.20;;
24685;SDS011;12804;51.176;4.452;2024-02-28T05:01:01;17.52;;;10.02;;
24685;SDS011;12804;51.176;4.452;2024-02-28T05:03:28;18.73;;;10.77;;
24685;SDS011;12804;51.176;4.452;2024-02-28T05:05:54;19.45;;;10.52;;
24685;SDS011;12804;51.176;4.452;2024-02-28T05:08:20;16.83;;;10.25;;
24685;SDS011;12804;51.176;4.452;2024-02-28T05:10:46;19.52;;;10.52;;
24685;SDS011;12804;51.176;4.452;2024-02-28T05:13:12;20.00;;;10.45;;
24685;SDS011;12804;51.176;4.452;2024-02-28T05:15:38;20.88;;;10.52;;
24685;SDS011;12804;51.176;4.452;2024-02-28T05:18:04;20.25;;;10.00;;
24685;SDS011;12804;51.176;4.452;2024-02-28T05:20:30;15.35;;;9.35;;
24685;SDS011;12804;51.176;4.452;2024-02-28T05:22:56;15.80;;;9.95;;
24685;SDS011;12804;51.176;4.452;2024-02-28T05:25:22;16.80;;;9.93;;
24685;SDS011;12804;51.176;4.452;2024-02-28T05:27:48;20.25;;;10.32;;
24685;SDS011;12804;51.176;4.452;2024-02-28T05:30:14;17.63;;;10.32;;
24685;SDS011;12804;51.176;4.452;2024-02-28T05:32:39;18.42;;;10.38;;
24685;SDS011;12804;51.176;4.452;2024-02-28T05:35:05;19.73;;;10.60;;
24685;SDS011;12804;51.176;4.452;2024-02-28T05:37:31;15.63;;;10.30;;
24685;SDS011;12804;51.176;4.452;2024-02-28T05:39:57;20.95;;;10.18;;
24685;SDS011;12804;51.176;4.452;2024-02-28T05:42:23;17.25;;;10.55;;
24685;SDS011;12804;51.176;4.452;2024-02-28T05:44:49;16.60;;;9.82;;
24685;SDS011;12804;51.176;4.452;2024-02-28T05:47:15;19.73;;;11.63;;
24685;SDS011;12804;51.176;4.452;2024-02-28T05:49:41;18.15;;;10.88;;
24685;SDS011;12804;51.176;4.452;2024-02-28T05:52:07;23.27;;;11.73;;
24685;SDS011;12804;51.176;4.452;2024-02-28T05:54:34;19.38;;;10.90;;
24685;SDS011;12804;51.176;4.452;2024-02-28T05:57:00;18.85;;;10.65;;
24685;SDS011;12804;51.176;4.452;2024-02-28T05:59:26;19.38;;;11.32;;
24685;SDS011;12804;51.176;4.452;2024-02-28T06:01:52;19.85;;;11.23;;
24685;SDS011;12804;51.176;4.452;2024-02-28T06:04:17;21.50;;;10.95;;
24685;SDS011;12804;51.176;4.452;2024-02-28T06:06:43;17.95;;;11.07;;
24685;SDS011;12804;51.176;4.452;2024-02-28T06:09:09;20.88;;;11.48;;
24685;SDS011;12804;51.176;4.452;2024-02-28T06:11:35;23.58;;;10.73;;
24685;SDS011;12804;51.176;4.452;2024-02-28T06:14:01;20.30;;;11.68;;
24685;SDS011;12804;51.176;4.452;2024-02-28T06:16:29;20.52;;;11.13;;
24685;SDS011;12804;51.176;4.452;2024-02-28T06:18:55;19.00;;;11.75;;
24685;SDS011;12804;51.176;4.452;2024-02-28T06:21:24;23.70;;;11.70;;
24685;SDS011;12804;51.176;4.452;2024-02-28T06:23:50;21.98;;;11.75;;
24685;SDS011;12804;51.176;4.452;2024-02-28T06:26:16;25.83;;;11.43;;
24685;SDS011;12804;51.176;4.452;2024-02-28T06:28:43;22.13;;;11.82;;
24685;SDS011;12804;51.176;4.452;2024-02-28T06:31:17;20.88;;;11.38;;
24685;SDS011;12804;51.176;4.452;2024-02-28T06:36:09;24.25;;;11.18;;
24685;SDS011;12804;51.176;4.452;2024-02-28T06:38:35;20.05;;;11.02;;
24685;SDS011;12804;51.176;4.452;2024-02-28T06:41:02;24.25;;;12.07;;
24685;SDS011;12804;51.176;4.452;2024-02-28T06:43:29;25.10;;;12.32;;
24685;SDS011;12804;51.176;4.452;2024-02-28T06:45:56;20.88;;;10.98;;
24685;SDS011;12804;51.176;4.452;2024-02-28T06:48:22;21.80;;;11.88;;
24685;SDS011;12804;51.176;4.452;2024-02-28T06:50:48;20.67;;;11.60;;
24685;SDS011;12804;51.176;4.452;2024-02-28T06:53:14;21.00;;;11.70;;
24685;SDS011;12804;51.176;4.452;2024-02-28T06:55:40;21.63;;;12.05;;
24685;SDS011;12804;51.176;4.452;2024-02-28T06:58:06;21.38;;;11.82;;
24685;SDS011;12804;51.176;4.452;2024-02-28T07:00:31;19.02;;;10.45;;
24685;SDS011;12804;51.176;4.452;2024-02-28T07:02:57;21.30;;;13.05;;
24685;SDS011;12804;51.176;4.452;2024-02-28T07:05:23;24.45;;;12.20;;
24685;SDS011;12804;51.176;4.452;2024-02-28T07:07:49;19.35;;;12.05;;
24685;SDS011;12804;51.176;4.452;2024-02-28T07:10:15;18.33;;;11.82;;
24685;SDS011;12804;51.176;4.452;2024-02-28T07:12:41;25.58;;;13.20;;
24685;SDS011;12804;51.176;4.452;2024-02-28T07:15:07;22.13;;;12.70;;
24685;SDS011;12804;51.176;4.452;2024-02-28T07:17:33;27.00;;;13.48;;
24685;SDS011;12804;51.176;4.452;2024-02-28T07:19:58;24.63;;;12.90;;
24685;SDS011;12804;51.176;4.452;2024-02-28T07:22:24;22.73;;;12.38;;
24685;SDS011;12804;51.176;4.452;2024-02-28T07:24:50;23.48;;;12.15;;
24685;SDS011;12804;51.176;4.452;2024-02-28T07:27:16;22.65;;;13.02;;
24685;SDS011;12804;51.176;4.452;2024-02-28T07:29:42;19.45;;;11.27;;
24685;SDS011;12804;51.176;4.452;2024-02-28T07:32:07;21.98;;;11.82;;
24685;SDS011;12804;51.176;4.452;2024-02-28T07:34:33;26.67;;;12.80;;
24685;SDS011;12804;51.176;4.452;2024-02-28T07:36:59;20.65;;;11.55;;
24685;SDS011;12804;51.176;4.452;2024-02-28T07:39:25;26.23;;;13.35;;
24685;SDS011;12804;51.176;4.452;2024-02-28T07:41:52;21.73;;;11.77;;
24685;SDS011;12804;51.176;4.452;2024-02-28T07:44:18;24.92;;;11.90;;
24685;SDS011;12804;51.176;4.452;2024-02-28T07:46:43;19.85;;;12.68;;
24685;SDS011;12804;51.176;4.452;2024-02-28T07:49:10;25.42;;;12.90;;
24685;SDS011;12804;51.176;4.452;2024-02-28T07:51:36;25.45;;;12.05;;
24685;SDS011;12804;51.176;4.452;2024-02-28T07:54:02;24.00;;;12.75;;
24685;SDS011;12804;51.176;4.452;2024-02-28T07:56:28;22.98;;;12.45;;
24685;SDS011;12804;51.176;4.452;2024-02-28T07:58:54;25.15;;;12.43;;
24685;SDS011;12804;51.176;4.452;2024-02-28T08:01:20;25.02;;;13.07;;
24685;SDS011;12804;51.176;4.452;2024-02-28T08:03:47;23.33;;;13.77;;
24685;SDS011;12804;51.176;4.452;2024-02-28T08:06:13;24.45;;;12.50;;
24685;SDS011;12804;51.176;4.452;2024-02-28T08:08:39;26.85;;;13.10;;
24685;SDS011;12804;51.176;4.452;2024-02-28T08:11:05;23.92;;;13.30;;
24685;SDS011;12804;51.176;4.452;2024-02-28T08:13:31;22.92;;;12.85;;
24685;SDS011;12804;51.176;4.452;2024-02-28T08:15:58;22.85;;;12.55;;
24685;SDS011;12804;51.176;4.452;2024-02-28T08:18:24;19.90;;;11.75;;
24685;SDS011;12804;51.176;4.452;2024-02-28T08:20:50;25.55;;;12.55;;
24685;SDS011;12804;51.176;4.452;2024-02-28T08:23:18;24.33;;;13.32;;
24685;SDS011;12804;51.176;4.452;2024-02-28T08:25:43;25.15;;;12.05;;
24685;SDS011;12804;51.176;4.452;2024-02-28T08:28:09;22.05;;;13.55;;
24685;SDS011;12804;51.176;4.452;2024-02-28T08:30:35;27.52;;;12.68;;
24685;SDS011;12804;51.176;4.452;2024-02-28T08:33:01;20.92;;;13.15;;
24685;SDS011;12804;51.176;4.452;2024-02-28T08:35:26;23.17;;;12.70;;
24685;SDS011;12804;51.176;4.452;2024-02-28T08:37:53;24.38;;;13.02;;
24685;SDS011;12804;51.176;4.452;2024-02-28T08:40:19;21.33;;;12.68;;
24685;SDS011;12804;51.176;4.452;2024-02-28T08:42:45;25.95;;;13.00;;
24685;SDS011;12804;51.176;4.452;2024-02-28T08:45:11;23.77;;;13.00;;
24685;SDS011;12804;51.176;4.452;2024-02-28T08:47:37;25.83;;;12.18;;
24685;SDS011;12804;51.176;4.452;2024-02-28T08:50:03;25.50;;;12.85;;
24685;SDS011;12804;51.176;4.452;2024-02-28T08:52:29;24.60;;;11.93;;
24685;SDS011;12804;51.176;4.452;2024-02-28T08:54:55;31.23;;;12.85;;
24685;SDS011;12804;51.176;4.452;2024-02-28T08:57:21;24.23;;;12.57;;
24685;SDS011;12804;51.176;4.452;2024-02-28T08:59:48;26.65;;;13.00;;
24685;SDS011;12804;51.176;4.452;2024-02-28T09:02:15;30.63;;;13.13;;
24685;SDS011;12804;51.176;4.452;2024-02-28T09:04:40;28.75;;;12.63;;
24685;SDS011;12804;51.176;4.452;2024-02-28T09:07:06;27.23;;;13.02;;
24685;SDS011;12804;51.176;4.452;2024-02-28T09:09:32;29.25;;;13.00;;
24685;SDS011;12804;51.176;4.452;2024-02-28T09:12:03;26.65;;;14.13;;
24685;SDS011;12804;51.176;4.452;2024-02-28T09:14:29;32.90;;;13.73;;
24685;SDS011;12804;51.176;4.452;2024-02-28T09:16:54;22.98;;;12.25;;
24685;SDS011;12804;51.176;4.452;2024-02-28T09:19:28;29.23;;;12.90;;
24685;SDS011;12804;51.176;4.452;2024-02-28T09:21:57;30.55;;;13.82;;
24685;SDS011;12804;51.176;4.452;2024-02-28T09:24:23;33.38;;;13.80;;
24685;SDS011;12804;51.176;4.452;2024-02-28T09:26:49;29.52;;;12.93;;
24685;SDS011;12804;51.176;4.452;2024-02-28T09:29:15;31.23;;;13.60;;
24685;SDS011;12804;51.176;4.452;2024-02-28T09:31:41;29.27;;;13.30;;
24685;SDS011;12804;51.176;4.452;2024-02-28T09:34:07;32.30;;;13.73;;
24685;SDS011;12804;51.176;4.452;2024-02-28T09:36:43;33.83;;;14.95;;
24685;SDS011;12804;51.176;4.452;2024-02-28T09:39:14;36.45;;;16.42;;
24685;SDS011;12804;51.176;4.452;2024-02-28T09:41:40;40.70;;;16.88;;
24685;SDS011;12804;51.176;4.452;2024-02-28T09:44:07;34.83;;;15.80;;
24685;SDS011;12804;51.176;4.452;2024-02-28T09:46:33;39.22;;;15.90;;
24685;SDS011;12804;51.176;4.452;2024-02-28T09:49:03;32.38;;;14.88;;
24685;SDS011;12804;51.176;4.452;2024-02-28T09:51:33;31.70;;;13.75;;
24685;SDS011;12804;51.176;4.452;2024-02-28T09:54:01;34.50;;;13.88;;
24685;SDS011;12804;51.176;4.452;2024-02-28T09:56:28;30.35;;;12.93;;
24685;SDS011;12804;51.176;4.452;2024-02-28T09:58:54;27.90;;;12.48;;
24685;SDS011;12804;51.176;4.452;2024-02-28T10:01:25;27.00;;;11.05;;
24685;SDS011;12804;51.176;4.452;2024-02-28T10:03:51;24.42;;;10.60;;
24685;SDS011;12804;51.176;4.452;2024-02-28T10:06:19;22.15;;;10.07;;
24685;SDS011;12804;51.176;4.452;2024-02-28T10:08:45;20.88;;;9.82;;
24685;SDS011;12804;51.176;4.452;2024-02-28T10:11:23;20.73;;;9.90;;
24685;SDS011;12804;51.176;4.452;2024-02-28T10:13:49;20.67;;;10.52;;
24685;SDS011;12804;51.176;4.452;2024-02-28T10:16:15;26.20;;;11.15;;
24685;SDS011;12804;51.176;4.452;2024-02-28T10:18:42;20.98;;;9.77;;
24685;SDS011;12804;51.176;4.452;2024-02-28T10:21:08;21.05;;;10.57;;
24685;SDS011;12804;51.176;4.452;2024-02-28T10:23:35;28.15;;;10.32;;
24685;SDS011;12804;51.176;4.452;2024-02-28T10:26:01;20.25;;;10.40;;
24685;SDS011;12804;51.176;4.452;2024-02-28T10:28:28;20.25;;;10.18;;
24685;SDS011;12804;51.176;4.452;2024-02-28T10:30:54;19.90;;;10.50;;
24685;SDS011;12804;51.176;4.452;2024-02-28T10:33:20;21.25;;;10.55;;
24685;SDS011;12804;51.176;4.452;2024-02-28T10:35:46;20.13;;;10.63;;
24685;SDS011;12804;51.176;4.452;2024-02-28T10:38:18;21.48;;;9.68;;
24685;SDS011;12804;51.176;4.452;2024-02-28T10:40:46;20.38;;;10.27;;
24685;SDS011;12804;51.176;4.452;2024-02-28T10:43:12;20.23;;;10.05;;
24685;SDS011;12804;51.176;4.452;2024-02-28T10:45:42;17.90;;;9.98;;
24685;SDS011;12804;51.176;4.452;2024-02-28T10:48:08;23.50;;;10.63;;
24685;SDS011;12804;51.176;4.452;2024-02-28T10:50:36;16.05;;;9.63;;
24685;SDS011;12804;51.176;4.452;2024-02-28T10:53:03;17.13;;;8.77;;
24685;SDS011;12804;51.176;4.452;2024-02-28T10:55:33;18.15;;;9.30;;
24685;SDS011;12804;51.176;4.452;2024-02-28T10:58:06;16.45;;;8.80;;
24685;SDS011;12804;51.176;4.452;2024-02-28T11:00:35;17.60;;;8.38;;
24685;SDS011;12804;51.176;4.452;2024-02-28T11:03:03;15.65;;;8.43;;
24685;SDS011;12804;51.176;4.452;2024-02-28T11:05:43;16.40;;;8.20;;
24685;SDS011;12804;51.176;4.452;2024-02-28T11:08:22;15.40;;;8.50;;
24685;SDS011;12804;51.176;4.452;2024-02-28T11:11:02;14.90;;;8.30;;
24685;SDS011;12804;51.176;4.452;2024-02-28T11:13:29;12.68;;;7.45;;
24685;SDS011;12804;51.176;4.452;2024-02-28T11:16:08;16.58;;;7.15;;
24685;SDS011;12804;51.176;4.452;2024-02-28T11:18:35;11.82;;;6.30;;
24685;SDS011;12804;51.176;4.452;2024-02-28T11:21:00;12.05;;;6.95;;
24685;SDS011;12804;51.176;4.452;2024-02-28T11:23:35;13.00;;;7.38;;
24685;SDS011;12804;51.176;4.452;2024-02-28T11:26:02;12.27;;;6.72;;
24685;SDS011;12804;51.176;4.452;2024-02-28T11:28:28;9.80;;;6.18;;
24685;SDS011;12804;51.176;4.452;2024-02-28T11:30:54;8.73;;;5.88;;
24685;SDS011;12804;51.176;4.452;2024-02-28T11:33:21;8.15;;;5.85;;
24685;SDS011;12804;51.176;4.452;2024-02-28T11:35:59;13.95;;;5.82;;
24685;SDS011;12804;51.176;4.452;2024-02-28T11:38:25;10.13;;;5.88;;
24685;SDS011;12804;51.176;4.452;2024-02-28T11:40:52;8.65;;;5.75;;
24685;SDS011;12804;51.176;4.452;2024-02-28T11:43:19;9.38;;;5.85;;
24685;SDS011;12804;51.176;4.452;2024-02-28T11:45:44;11.80;;;5.93;;
24685;SDS011;12804;51.176;4.452;2024-02-28T11:48:12;10.43;;;6.28;;
24685;SDS011;12804;51.176;4.452;2024-02-28T11:50:39;9.82;;;6.35;;
24685;SDS011;12804;51.176;4.452;2024-02-28T11:53:05;11.20;;;6.07;;
24685;SDS011;12804;51.176;4.452;2024-02-28T11:55:32;10.98;;;6.18;;
24685;SDS011;12804;51.176;4.452;2024-02-28T11:58:07;10.10;;;6.03;;
24685;SDS011;12804;51.176;4.452;2024-02-28T12:00:34;9.05;;;5.97;;
24685;SDS011;12804;51.176;4.452;2024-02-28T12:03:04;9.82;;;6.18;;
24685;SDS011;12804;51.176;4.452;2024-02-28T12:05:33;8.40;;;5.88;;
24685;SDS011;12804;51.176;4.452;2024-02-28T12:08:03;10.05;;;6.00;;
24685;SDS011;12804;51.176;4.452;2024-02-28T12:10:29;8.23;;;5.80;;
24685;SDS011;12804;51.176;4.452;2024-02-28T12:12:59;8.52;;;5.85;;
24685;SDS011;12804;51.176;4.452;2024-02-28T12:15:29;9.98;;;5.80;;
24685;SDS011;12804;51.176;4.452;2024-02-28T12:17:56;9.57;;;6.03;;
24685;SDS011;12804;51.176;4.452;2024-02-28T12:20:23;7.72;;;5.78;;
24685;SDS011;12804;51.176;4.452;2024-02-28T12:22:49;7.10;;;5.93;;
24685;SDS011;12804;51.176;4.452;2024-02-28T12:25:15;9.35;;;6.32;;
24685;SDS011;12804;51.176;4.452;2024-02-28T12:27:40;11.43;;;6.45;;
24685;SDS011;12804;51.176;4.452;2024-02-28T12:30:07;10.27;;;6.18;;
24685;SDS011;12804;51.176;4.452;2024-02-28T12:32:33;9.48;;;6.13;;
24685;SDS011;12804;51.176;4.452;2024-02-28T12:34:59;10.35;;;6.20;;
24685;SDS011;12804;51.176;4.452;2024-02-28T12:37:25;12.93;;;5.93;;
24685;SDS011;12804;51.176;4.452;2024-02-28T12:39:51;10.52;;;6.28;;
24685;SDS011;12804;51.176;4.452;2024-02-28T12:42:17;9.88;;;6.10;;
24685;SDS011;12804;51.176;4.452;2024-02-28T12:44:43;8.90;;;6.07;;
24685;SDS011;12804;51.176;4.452;2024-02-28T12:47:12;9.45;;;5.45;;
24685;SDS011;12804;51.176;4.452;2024-02-28T12:49:38;11.35;;;5.97;;
24685;SDS011;12804;51.176;4.452;2024-02-28T12:52:04;7.90;;;5.50;;
24685;SDS011;12804;51.176;4.452;2024-02-28T12:54:30;8.82;;;5.72;;
24685;SDS011;12804;51.176;4.452;2024-02-28T12:56:55;9.85;;;5.35;;
24685;SDS011;12804;51.176;4.452;2024-02-28T12:59:21;10.90;;;5.88;;
24685;SDS011;12804;51.176;4.452;2024-02-28T13:01:47;8.93;;;5.93;;
24685;SDS011;12804;51.176;4.452;2024-02-28T13:04:13;8.98;;;6.45;;
24685;SDS011;12804;51.176;4.452;2024-02-28T13:06:39;13.50;;;5.57;;
24685;SDS011;12804;51.176;4.452;2024-02-28T13:09:05;9.85;;;6.05;;
24685;SDS011;12804;51.176;4.452;2024-02-28T13:11:37;11.07;;;6.60;;
24685;SDS011;12804;51.176;4.452;2024-02-28T13:14:03;10.45;;;6.28;;
24685;SDS011;12804;51.176;4.452;2024-02-28T13:16:30;10.77;;;5.88;;
24685;SDS011;12804;51.176;4.452;2024-02-28T13:18:56;8.93;;;5.65;;
24685;SDS011;12804;51.176;4.452;2024-02-28T13:21:22;7.75;;;5.38;;
24685;SDS011;12804;51.176;4.452;2024-02-28T13:23:48;7.45;;;5.10;;
24685;SDS011;12804;51.176;4.452;2024-02-28T13:26:14;6.18;;;5.10;;
24685;SDS011;12804;51.176;4.452;2024-02-28T13:28:43;8.40;;;5.20;;
24685;SDS011;12804;51.176;4.452;2024-02-28T13:31:09;7.20;;;4.65;;
24685;SDS011;12804;51.176;4.452;2024-02-28T13:33:35;6.43;;;4.70;;
24685;SDS011;12804;51.176;4.452;2024-02-28T13:36:02;6.65;;;5.13;;
24685;SDS011;12804;51.176;4.452;2024-02-28T13:38:29;9.63;;;4.70;;
24685;SDS011;12804;51.176;4.452;2024-02-28T13:40:55;4.28;;;3.85;;
24685;SDS011;12804;51.176;4.452;2024-02-28T13:43:21;6.05;;;3.80;;
24685;SDS011;12804;51.176;4.452;2024-02-28T13:45:48;5.70;;;4.30;;
24685;SDS011;12804;51.176;4.452;2024-02-28T13:48:22;4.63;;;3.70;;
24685;SDS011;12804;51.176;4.452;2024-02-28T13:50:52;7.13;;;4.20;;
24685;SDS011;12804;51.176;4.452;2024-02-28T13:53:18;5.32;;;3.88;;
24685;SDS011;12804;51.176;4.452;2024-02-28T13:55:44;8.40;;;4.10;;
24685;SDS011;12804;51.176;4.452;2024-02-28T13:58:11;5.63;;;4.00;;
24685;SDS011;12804;51.176;4.452;2024-02-28T14:00:38;4.38;;;3.92;;
24685;SDS011;12804;51.176;4.452;2024-02-28T14:03:04;4.82;;;4.25;;
24685;SDS011;12804;51.176;4.452;2024-02-28T14:05:31;5.07;;;4.25;;
24685;SDS011;12804;51.176;4.452;2024-02-28T14:07:57;5.90;;;4.35;;
24685;SDS011;12804;51.176;4.452;2024-02-28T14:10:24;5.38;;;4.07;;
24685;SDS011;12804;51.176;4.452;2024-02-28T14:12:50;7.38;;;4.35;;
24685;SDS011;12804;51.176;4.452;2024-02-28T14:15:19;7.75;;;4.35;;
24685;SDS011;12804;51.176;4.452;2024-02-28T14:17:46;5.45;;;3.88;;
24685;SDS011;12804;51.176;4.452;2024-02-28T14:20:12;7.35;;;4.15;;
24685;SDS011;12804;51.176;4.452;2024-02-28T14:22:38;4.80;;;3.60;;
24685;SDS011;12804;51.176;4.452;2024-02-28T14:25:17;8.75;;;3.85;;
24685;SDS011;12804;51.176;4.452;2024-02-28T14:27:45;5.22;;;3.40;;